Time;durP1;ratioP1;P1;durP2;ratioP2;P2;SDS_P1;SDS_P2;PMS_P1;PMS_P2;Temp;Humidity;BMP_temperature;BMP_pressure;BME280_temperature;BME280_humidity;BME280_pressure;Samples;Min_cycle;Max_cycle;Signal;HPM_P1;HPM_P2
2023/01/16 00:02:20;;;;;;;11.00;9.90;;;;;;;19.63;51.31;100184.75;5061618;28;20044;-52
2023/01/16 00:04:47;;;;;;;10.82;9.73;;;;;;;19.62;51.12;100186.59;5073121;28;20044;-50
2023/01/16 00:07:15;;;;;;;11.18;10.07;;;;;;;19.62;51.02;100178.53;5068516;28;20075;-53
2023/01/16 00:09:42;;;;;;;11.00;9.98;;;;;;;19.61;51.09;100171.47;5052800;28;20036;-52
2023/01/16 00:12:09;;;;;;;11.20;10.00;;;;;;;19.62;50.71;100169.63;5053203;28;20049;-52
2023/01/16 00:14:36;;;;;;;10.02;9.07;;;;;;;19.61;50.88;100162.56;5053659;28;20045;-51
2023/01/16 00:17:04;;;;;;;10.90;9.90;;;;;;;19.61;50.85;100160.75;5053247;28;20049;-53
2023/01/16 00:19:34;;;;;;;12.30;11.13;;;;;;;19.60;50.93;100153.63;5053198;28;20049;-59
2023/01/16 00:22:01;;;;;;;12.13;10.93;;;;;;;19.59;50.87;100151.94;5053621;28;20047;-59
2023/01/16 00:24:29;;;;;;;11.75;9.63;;;;;;;19.60;50.97;100150.09;5053306;28;20041;-59
2023/01/16 00:26:56;;;;;;;10.40;9.40;;;;;;;19.59;50.87;100149.25;5053217;28;20049;-59
2023/01/16 00:29:23;;;;;;;11.60;10.40;;;;;;;19.59;50.89;100148.41;5053811;28;20395;-59
2023/01/16 00:31:50;;;;;;;12.48;10.07;;;;;;;19.58;50.92;100142.19;5053185;28;20406;-59
2023/01/16 00:34:18;;;;;;;12.05;10.48;;;;;;;19.58;50.92;100157.47;5053178;28;20049;-59
2023/01/16 00:36:45;;;;;;;11.30;10.20;;;;;;;19.57;50.78;100151.25;5053999;28;20472;-59
2023/01/16 00:39:13;;;;;;;11.38;9.50;;;;;;;19.57;50.83;100159.31;5073119;28;20059;-59
2023/01/16 00:41:40;;;;;;;12.18;11.07;;;;;;;19.56;50.86;100141.50;5071901;28;20522;-59
2023/01/16 00:44:07;;;;;;;11.13;10.07;;;;;;;19.55;51.05;100142.50;5073080;28;20056;-59
2023/01/16 00:46:36;;;;;;;11.07;9.98;;;;;;;19.56;50.93;100137.97;5072807;28;20044;-59
2023/01/16 00:49:03;;;;;;;11.43;10.32;;;;;;;19.56;50.88;100136.13;5073417;28;20048;-59
2023/01/16 00:51:31;;;;;;;11.27;10.18;;;;;;;19.56;50.90;100117.31;5073362;28;20482;-59
2023/01/16 00:53:58;;;;;;;10.85;9.75;;;;;;;19.56;51.06;100117.31;5072692;28;20376;-59
2023/01/16 00:56:25;;;;;;;11.45;10.30;;;;;;;19.56;50.78;100130.75;5072715;28;20052;-59
2023/01/16 00:58:53;;;;;;;11.88;9.65;;;;;;;19.55;50.83;100128.22;5073538;28;20051;-53
2023/01/16 01:01:20;;;;;;;11.50;10.40;;;;;;;19.56;50.72;100124.53;5072827;28;20055;-52
2023/01/16 01:03:48;;;;;;;10.98;9.88;;;;;;;19.57;50.80;100131.59;5051634;28;20076;-50
2023/01/16 01:06:15;;;;;;;12.02;10.38;;;;;;;19.55;50.87;100130.91;5053039;28;20045;-52
2023/01/16 01:08:42;;;;;;;10.88;9.77;;;;;;;19.56;50.86;100132.59;5056527;28;20053;-59
2023/01/16 01:11:13;;;;;;;10.25;9.25;;;;;;;19.55;50.78;100134.44;5051950;28;20060;-59
2023/01/16 01:13:42;;;;;;;10.40;9.40;;;;;;;19.55;50.69;100133.59;5052745;28;20411;-59
2023/01/16 01:16:11;;;;;;;11.48;10.32;;;;;;;19.55;50.73;100123.69;5053052;28;20075;-59
2023/01/16 01:18:39;;;;;;;11.48;10.27;;;;;;;19.54;50.76;100122.03;5052877;28;20399;-59
2023/01/16 01:21:06;;;;;;;10.73;9.63;;;;;;;19.55;50.78;100122.84;5052716;28;20048;-59
2023/01/16 01:23:34;;;;;;;10.18;9.23;;;;;;;19.54;50.67;100130.06;5052770;28;20056;-59
2023/01/16 01:26:07;;;;;;;12.00;10.77;;;;;;;19.54;50.64;100110.44;5052426;28;20048;-59
2023/01/16 01:28:35;;;;;;;12.38;9.70;;;;;;;19.53;50.68;100106.91;5052603;28;20045;-59
2023/01/16 01:31:05;;;;;;;11.60;10.35;;;;;;;19.53;50.68;100104.22;5052115;28;20045;-59
2023/01/16 01:33:33;;;;;;;10.55;9.45;;;;;;;19.52;50.78;100092.63;5075314;28;20052;-59
2023/01/16 01:36:01;;;;;;;11.45;10.25;;;;;;;19.52;50.62;100089.94;5076246;28;20036;-59
2023/01/16 01:38:28;;;;;;;10.32;9.32;;;;;;;19.51;50.87;100099.00;5076306;28;20055;-58
2023/01/16 01:40:55;;;;;;;11.77;10.68;;;;;;;19.51;50.61;100088.25;5076158;28;20048;-59
2023/01/16 01:43:49;;;;;;;11.20;10.10;;;;;;;19.52;50.81;100094.47;5076191;28;20048;-59
2023/01/16 01:46:30;;;;;;;11.50;10.40;;;;;;;19.51;50.71;100092.78;5075900;28;20037;-59
2023/01/16 01:49:17;;;;;;;11.02;9.85;;;;;;;19.50;50.75;100083.88;5076427;28;20040;-59
2023/01/16 01:51:45;;;;;;;11.23;10.13;;;;;;;19.50;50.85;100081.19;5074875;28;20063;-59
2023/01/16 01:54:21;;;;;;;10.55;9.50;;;;;;;19.50;50.72;100077.69;5076341;28;20470;-59
2023/01/16 01:56:55;;;;;;;12.43;10.48;;;;;;;19.50;50.58;100069.63;5075982;28;20052;-59
2023/01/16 01:59:29;;;;;;;13.43;10.07;;;;;;;19.48;50.78;100061.69;5076356;28;20052;-53
2023/01/16 02:01:57;;;;;;;11.30;10.20;;;;;;;19.49;50.60;100063.41;5071076;28;20506;-50
2023/01/16 02:04:30;;;;;;;12.35;11.13;;;;;;;19.49;50.67;100058.03;5055783;28;20052;-51
2023/01/16 02:07:03;;;;;;;11.63;10.52;;;;;;;19.49;50.62;100046.47;5060655;28;20071;-50
2023/01/16 02:09:30;;;;;;;11.60;10.40;;;;;;;19.48;50.68;100037.53;5068543;28;20041;-59
2023/01/16 02:12:00;;;;;;;11.95;10.75;;;;;;;19.48;50.99;100032.19;5055228;28;20383;-59
2023/01/16 02:14:30;;;;;;;11.85;10.75;;;;;;;19.48;50.66;100034.84;5055572;28;20048;-59
2023/01/16 02:20:10;;;;;;;10.70;9.60;;;;;;;19.48;50.62;100029.50;5055982;28;20056;-59
2023/01/16 02:22:52;;;;;;;11.73;10.45;;;;;;;19.49;50.83;100019.63;5055236;28;20138;-59
2023/01/16 02:25:19;;;;;;;10.95;9.90;;;;;;;19.48;50.56;100016.06;5055342;28;20049;-59
2023/01/16 02:27:59;;;;;;;12.65;10.95;;;;;;;19.48;50.71;100012.53;5055440;28;20048;-58
2023/01/16 02:30:52;;;;;;;11.02;9.93;;;;;;;19.48;50.52;99991.06;5054902;28;20049;-51
2023/01/16 02:33:38;;;;;;;12.02;10.85;;;;;;;19.47;50.63;99979.50;5055394;28;20055;-54
2023/01/16 02:36:23;;;;;;;11.23;10.13;;;;;;;19.47;50.56;99975.97;5054962;28;20503;-50
2023/01/16 02:39:12;;;;;;;11.27;10.18;;;;;;;19.47;50.39;99975.97;5055399;28;20044;-50
2023/01/16 02:42:00;;;;;;;11.05;9.95;;;;;;;19.47;50.60;99989.38;5054717;28;20049;-52
2023/01/16 02:44:45;;;;;;;11.43;10.35;;;;;;;19.47;50.56;99979.50;5035439;28;20048;-50
2023/01/16 02:47:26;;;;;;;12.18;10.88;;;;;;;19.47;50.49;99986.69;5035025;28;20041;-51
2023/01/16 02:50:01;;;;;;;10.35;9.30;;;;;;;19.47;50.65;99982.19;5035061;28;20507;-52
2023/01/16 02:52:35;;;;;;;10.65;9.57;;;;;;;19.47;50.75;99981.34;5034904;28;20411;-54
2023/01/16 02:55:45;;;;;;;11.82;10.60;;;;;;;19.47;50.56;99978.66;5034535;28;20053;-52
2023/01/16 02:58:14;;;;;;;11.23;10.05;;;;;;;19.47;50.71;99984.84;5012869;28;20056;-54
2023/01/16 03:00:53;;;;;;;12.02;10.38;;;;;;;19.46;50.86;99980.50;5012830;28;20060;-54
2023/01/16 03:03:38;;;;;;;11.50;10.40;;;;;;;19.47;50.72;99981.34;5029381;28;20061;-51
2023/01/16 03:06:27;;;;;;;11.60;10.43;;;;;;;19.46;50.88;99982.34;5032380;28;20053;-51
2023/01/16 03:09:00;;;;;;;11.18;10.07;;;;;;;19.46;50.55;99977.81;5032619;28;20065;-59
2023/01/16 03:11:29;;;;;;;11.60;10.43;;;;;;;19.45;50.75;99965.41;5030610;28;20049;-59
2023/01/16 03:14:16;;;;;;;11.55;10.38;;;;;;;19.45;50.71;99967.25;5032344;28;20045;-59
2023/01/16 03:17:13;;;;;;;10.85;9.75;;;;;;;19.45;50.68;99970.75;5032303;28;20496;-59
2023/01/16 03:20:05;;;;;;;11.65;10.48;;;;;;;19.44;50.59;99958.31;5032309;28;20401;-52
2023/01/16 03:22:52;;;;;;;10.75;9.73;;;;;;;19.43;50.67;99962.00;5032276;28;20061;-54
2023/01/16 03:25:33;;;;;;;11.20;9.95;;;;;;;19.44;50.58;99960.16;5032631;28;20519;-51
2023/01/16 03:28:09;;;;;;;11.95;10.68;;;;;;;19.44;50.68;99952.09;5032348;28;20056;-57
2023/01/16 03:31:35;;;;;;;11.15;10.05;;;;;;;19.43;50.52;99940.53;5034114;28;20065;-59
2023/01/16 03:34:39;;;;;;;10.68;9.60;;;;;;;19.43;50.59;99943.22;5031216;28;20053;-59
2023/01/16 03:37:11;;;;;;;12.00;10.45;;;;;;;19.44;50.64;99938.69;5031912;28;20486;-59
2023/01/16 03:39:43;;;;;;;13.70;11.38;;;;;;;19.44;50.52;99922.59;5032385;28;20057;-59
2023/01/16 03:42:15;;;;;;;12.40;11.10;;;;;;;19.43;50.58;99924.44;5031625;28;20450;-59
2023/01/16 03:44:50;;;;;;;10.10;9.10;;;;;;;19.43;50.71;99920.91;5031682;28;20053;-59
2023/01/16 03:47:27;;;;;;;10.60;9.60;;;;;;;19.42;50.63;99930.81;5032001;28;20041;-59
2023/01/16 03:50:00;;;;;;;10.80;9.70;;;;;;;19.42;50.49;99922.75;5031706;28;20102;-55
2023/01/16 03:52:35;;;;;;;11.20;10.00;;;;;;;19.43;50.55;99923.59;5031610;28;20060;-51
2023/01/16 03:55:14;;;;;;;11.18;10.02;;;;;;;19.42;50.58;99917.38;5031382;28;20499;-51
2023/01/16 03:57:47;;;;;;;10.07;9.07;;;;;;;19.43;50.53;99902.13;5031657;28;20053;-58
2023/01/16 04:00:15;;;;;;;9.98;8.98;;;;;;;19.43;50.52;99897.59;5030758;28;20077;-50
2023/01/16 04:03:03;;;;;;;10.85;9.82;;;;;;;19.42;50.42;99892.38;5030753;28;20083;-52
2023/01/16 04:05:35;;;;;;;10.68;9.68;;;;;;;19.43;50.58;99880.63;5031700;28;20057;-51
2023/01/16 04:08:14;;;;;;;11.52;9.77;;;;;;;19.43;50.49;99880.63;5032151;28;20068;-58
2023/01/16 04:10:46;;;;;;;10.65;9.63;;;;;;;19.42;50.50;99874.44;5033936;28;20060;-53
2023/01/16 04:13:21;;;;;;;10.00;9.02;;;;;;;19.43;50.40;99872.59;5032185;28;20037;-53
2023/01/16 04:15:54;;;;;;;10.73;9.48;;;;;;;19.42;50.60;99858.34;5033419;28;20404;-49
2023/01/16 04:18:25;;;;;;;10.20;9.23;;;;;;;19.42;50.53;99854.81;5033685;28;20049;-58
2023/01/16 04:20:53;;;;;;;9.82;8.82;;;;;;;19.42;50.60;99842.22;5033658;28;20045;-59
2023/01/16 04:23:20;;;;;;;10.32;8.85;;;;;;;19.41;50.49;99845.06;5033309;28;20045;-59
2023/01/16 04:25:48;;;;;;;10.32;9.20;;;;;;;19.41;50.49;99845.06;5033513;28;20056;-59
2023/01/16 04:28:15;;;;;;;10.32;9.30;;;;;;;19.42;50.61;99844.06;5033693;28;20045;-51
2023/01/16 04:30:42;;;;;;;9.45;8.45;;;;;;;19.41;50.58;99840.53;5033069;28;20045;-50
2023/01/16 04:33:10;;;;;;;10.82;9.73;;;;;;;19.41;50.39;99850.44;5033408;28;20399;-51
2023/01/16 04:35:37;;;;;;;10.10;9.10;;;;;;;19.41;50.56;99848.59;5033362;28;20053;-53
2023/01/16 04:38:04;;;;;;;10.73;9.70;;;;;;;19.42;50.67;99841.38;5033330;28;20395;-50
2023/01/16 04:40:31;;;;;;;9.52;8.63;;;;;;;19.41;50.69;99843.22;5033101;28;20045;-51
2023/01/16 04:42:59;;;;;;;11.30;9.18;;;;;;;19.41;50.64;99828.97;5040972;28;20053;-51
2023/01/16 04:45:26;;;;;;;9.77;8.77;;;;;;;19.41;50.61;99812.88;5053111;28;20493;-53
2023/01/16 04:47:53;;;;;;;10.27;9.02;;;;;;;19.41;50.58;99810.19;5052844;28;20055;-58
2023/01/16 04:50:21;;;;;;;9.70;8.70;;;;;;;19.41;50.78;99816.41;5053056;28;20060;-59
2023/01/16 04:55:36;;;;;;;10.77;8.70;;;;;;;19.40;50.60;99809.31;5052428;28;20061;-59
2023/01/16 04:58:06;;;;;;;10.77;9.68;;;;;;;19.39;50.37;99809.47;5053395;28;20048;-58
2023/01/16 05:00:34;;;;;;;10.80;9.43;;;;;;;19.39;50.56;99804.97;5052400;28;20041;-51
2023/01/16 05:03:01;;;;;;;11.68;9.80;;;;;;;19.40;50.36;99800.44;5066537;28;20049;-53
2023/01/16 05:05:28;;;;;;;10.30;9.20;;;;;;;19.40;50.24;99803.09;5072780;28;20045;-50
2023/01/16 05:10:41;;;;;;;10.75;9.63;;;;;;;19.40;50.33;99801.25;5076295;28;20044;-54
2023/01/16 05:13:08;;;;;;;10.02;9.05;;;;;;;19.40;50.21;99795.06;5069007;28;20048;-52
2023/01/16 05:15:36;;;;;;;10.60;9.50;;;;;;;19.39;50.09;99796.91;5056185;28;20049;-52
2023/01/16 05:18:03;;;;;;;10.90;9.85;;;;;;;19.40;50.20;99795.06;5056580;28;20049;-50
2023/01/16 05:20:32;;;;;;;10.27;9.27;;;;;;;19.40;50.22;99792.38;5056462;28;20049;-59
2023/01/16 05:22:59;;;;;;;9.82;8.63;;;;;;;19.41;50.17;99794.09;5056777;28;20487;-59
2023/01/16 05:25:26;;;;;;;10.82;9.73;;;;;;;19.39;50.28;99794.22;5056390;28;20052;-59
2023/01/16 05:27:53;;;;;;;9.40;8.45;;;;;;;19.39;50.19;99794.22;5056432;28;20391;-58
2023/01/16 05:30:21;;;;;;;10.02;9.07;;;;;;;19.39;50.23;99796.91;5056641;28;20049;-59
2023/01/16 05:32:48;;;;;;;10.48;9.48;;;;;;;19.39;50.11;99798.75;5055137;28;20049;-60
2023/01/16 05:35:16;;;;;;;9.45;8.50;;;;;;;19.39;50.30;99806.81;5076041;28;20494;-60
2023/01/16 05:37:44;;;;;;;11.07;9.15;;;;;;;19.39;50.31;99812.16;5076072;28;20048;-50
2023/01/16 05:40:12;;;;;;;10.75;9.32;;;;;;;19.39;50.07;99804.97;5076356;28;20052;-59
2023/01/16 05:42:42;;;;;;;9.40;8.38;;;;;;;19.39;50.22;99796.06;5075551;28;20064;-59
2023/01/16 05:45:10;;;;;;;9.60;8.38;;;;;;;19.38;50.26;99791.72;5075878;28;20048;-60
2023/01/16 05:47:38;;;;;;;9.75;8.70;;;;;;;19.39;50.22;99788.00;5076396;28;20041;-59
2023/01/16 05:50:10;;;;;;;9.90;8.90;;;;;;;19.38;50.21;99779.13;5076118;28;20044;-50
2023/01/16 05:52:37;;;;;;;9.75;8.75;;;;;;;19.38;49.98;99776.44;5058637;28;20045;-53
2023/01/16 05:55:05;;;;;;;9.75;8.82;;;;;;;19.39;50.07;99778.13;5056118;28;20049;-52
2023/01/16 05:57:32;;;;;;;10.43;9.02;;;;;;;19.38;50.15;99787.19;5055817;28;20041;-53
2023/01/16 06:00:00;;;;;;;10.57;9.48;;;;;;;19.37;50.07;99784.66;5054609;28;20418;-53
2023/01/16 06:02:31;;;;;;;10.30;9.30;;;;;;;19.37;50.10;99779.28;5065349;28;20048;-51
2023/01/16 06:04:58;;;;;;;9.57;8.57;;;;;;;19.37;50.03;99776.59;5076022;28;20724;-50
2023/01/16 06:07:26;;;;;;;10.45;8.57;;;;;;;19.37;50.10;99773.94;5075345;28;20479;-50
2023/01/16 06:09:53;;;;;;;11.30;8.95;;;;;;;19.37;49.94;99768.56;5076045;28;20048;-52
2023/01/16 06:12:21;;;;;;;11.45;9.57;;;;;;;19.36;50.11;99772.22;5075628;28;20056;-53
2023/01/16 06:14:48;;;;;;;10.30;9.30;;;;;;;19.36;50.06;99770.38;5056660;28;20395;-49
2023/01/16 06:17:16;;;;;;;11.35;10.23;;;;;;;19.36;50.02;99764.16;5054819;28;20041;-51
2023/01/16 06:19:44;;;;;;;10.15;8.90;;;;;;;19.36;50.05;99766.84;5056310;28;20060;-59
2023/01/16 06:22:12;;;;;;;10.30;9.07;;;;;;;19.36;50.01;99764.16;5054112;28;20053;-59
2023/01/16 06:24:40;;;;;;;10.80;9.70;;;;;;;19.34;50.00;99761.66;5055186;28;20045;-59
2023/01/16 06:27:07;;;;;;;10.55;9.55;;;;;;;19.35;50.03;99749.06;5054213;28;20056;-59
2023/01/16 06:29:35;;;;;;;10.88;9.25;;;;;;;19.35;50.02;99743.72;5055574;28;20487;-51
2023/01/16 06:32:02;;;;;;;10.07;9.07;;;;;;;19.34;50.04;99742.88;5055086;28;20049;-52
2023/01/16 06:34:29;;;;;;;10.32;9.32;;;;;;;19.35;50.03;99738.34;5055544;28;20049;-51
2023/01/16 06:36:56;;;;;;;10.45;9.35;;;;;;;19.35;50.04;99741.03;5055215;28;20044;-49
2023/01/16 06:39:24;;;;;;;10.20;9.20;;;;;;;19.35;49.99;99746.38;5055332;28;20044;-52
2023/01/16 06:41:51;;;;;;;10.20;9.18;;;;;;;19.34;49.81;99747.41;5070913;28;20055;-51
2023/01/16 06:44:18;;;;;;;11.02;9.80;;;;;;;19.34;49.80;99750.91;5074811;28;20049;-52
2023/01/16 06:46:46;;;;;;;11.05;9.95;;;;;;;19.35;49.97;99743.72;5074708;28;20044;-53
2023/01/16 06:49:13;;;;;;;11.05;9.82;;;;;;;19.35;49.89;99741.03;5075457;28;20041;-59
2023/01/16 06:51:42;;;;;;;11.63;9.88;;;;;;;19.34;49.87;99729.44;5074833;28;20044;-59
2023/01/16 06:54:10;;;;;;;11.15;9.98;;;;;;;19.35;49.91;99735.66;5074823;28;20049;-59
2023/01/16 06:56:37;;;;;;;10.95;9.85;;;;;;;19.34;50.09;99736.66;5074752;28;20379;-59
2023/01/16 06:59:04;;;;;;;11.27;9.85;;;;;;;19.34;49.91;99725.94;5074864;28;20067;-52
2023/01/16 07:01:32;;;;;;;10.73;9.65;;;;;;;19.34;49.67;99720.56;5072751;28;20509;-52
2023/01/16 07:04:00;;;;;;;10.90;9.75;;;;;;;19.33;49.84;99719.72;5054537;28;20052;-50
2023/01/16 07:06:27;;;;;;;11.15;9.98;;;;;;;19.34;49.92;99720.56;5055650;28;20053;-53
2023/01/16 07:08:54;;;;;;;10.88;9.77;;;;;;;19.34;49.94;99720.56;5054798;28;20049;-59
2023/01/16 07:11:22;;;;;;;10.75;9.55;;;;;;;19.32;49.99;99715.34;5054854;28;20052;-59
2023/01/16 07:22:33;;;;;;;14.20;9.45;;;;;;;19.33;49.76;99713.50;5054104;28;20048;-59
2023/01/16 07:24:58;;;;;;;11.95;10.68;;;;;;;19.33;49.87;99687.53;5054142;28;20134;-60
2023/01/16 07:27:26;;;;;;;12.10;9.73;;;;;;;19.33;49.93;99690.19;5054145;28;20376;-60
2023/01/16 07:29:53;;;;;;;12.20;10.65;;;;;;;19.34;49.68;99688.34;5053238;28;20537;-59
2023/01/16 07:32:21;;;;;;;12.05;10.48;;;;;;;19.32;49.68;99691.19;5072649;28;20044;-59
2023/01/16 07:34:48;;;;;;;13.30;10.75;;;;;;;19.32;49.52;99683.13;5073948;28;20111;-59
2023/01/16 07:37:16;;;;;;;12.18;10.88;;;;;;;19.32;49.78;99691.19;5074018;28;20049;-59
2023/01/16 07:39:43;;;;;;;16.45;11.70;;;;;;;19.32;49.59;99684.97;5074329;28;20150;-59
2023/01/16 07:42:10;;;;;;;12.88;10.30;;;;;;;19.31;49.77;99686.81;5073618;28;20044;-60
2023/01/16 07:44:38;;;;;;;12.02;10.63;;;;;;;19.31;49.80;99686.81;5072183;28;20052;-60
2023/01/16 07:47:06;;;;;;;13.57;11.35;;;;;;;19.31;49.67;99680.63;5073754;28;20071;-60
2023/01/16 07:49:33;;;;;;;13.65;11.48;;;;;;;19.31;49.63;99667.19;5074824;28;20059;-53
2023/01/16 07:52:00;;;;;;;13.32;11.05;;;;;;;19.32;49.57;99658.13;5073714;28;20037;-54
2023/01/16 07:54:36;;;;;;;11.80;10.60;;;;;;;19.31;49.57;99656.47;5073832;28;20486;-53
2023/01/16 07:57:03;;;;;;;12.93;10.45;;;;;;;19.31;49.60;99645.72;5073734;28;20056;-51
2023/01/16 07:59:30;;;;;;;12.63;11.27;;;;;;;19.31;49.63;99643.06;5073833;28;20497;-50
2023/01/16 08:01:58;;;;;;;17.63;12.68;;;;;;;19.32;49.26;99636.69;5068430;28;20368;-55
2023/01/16 08:04:25;;;;;;;13.00;10.73;;;;;;;19.32;49.87;99637.50;5063661;28;20041;-54
2023/01/16 08:06:52;;;;;;;15.68;11.77;;;;;;;19.33;49.88;99633.00;5070712;28;20045;-48
2023/01/16 08:09:20;;;;;;;15.38;11.43;;;;;;;19.37;49.69;99629.00;5073531;28;20037;-51
2023/01/16 08:11:47;;;;;;;12.70;11.20;;;;;;;19.36;49.80;99625.44;5078540;28;20044;-51
2023/01/16 08:14:15;;;;;;;15.80;11.82;;;;;;;19.36;49.54;99616.56;5094033;28;20040;-50
2023/01/16 08:16:55;;;;;;;16.02;12.07;;;;;;;19.36;49.40;99621.94;5093756;28;20056;-50
2023/01/16 08:19:22;;;;;;;11.88;10.60;;;;;;;19.35;49.65;99629.16;5092951;28;20382;-60
2023/01/16 08:21:50;;;;;;;15.90;11.15;;;;;;;19.37;49.60;99632.53;5072057;28;20402;-62
2023/01/16 08:24:18;;;;;;;13.45;11.65;;;;;;;19.39;49.16;99613.56;5073244;28;20049;-60
2023/01/16 08:26:45;;;;;;;16.08;12.90;;;;;;;19.40;49.00;99601.81;5072271;28;20056;-62
2023/01/16 08:29:12;;;;;;;17.13;12.55;;;;;;;19.42;48.66;99606.03;5073515;28;20037;-60
2023/01/16 08:31:40;;;;;;;14.80;11.68;;;;;;;19.44;49.44;99617.44;5073390;28;20410;-59
2023/01/16 08:34:08;;;;;;;17.60;13.00;;;;;;;19.47;48.97;99605.53;5073581;28;20071;-61
2023/01/16 08:36:53;;;;;;;26.15;17.33;;;;;;;19.47;47.82;99608.22;5073066;28;20041;-60
2023/01/16 08:39:21;;;;;;;27.50;19.73;;;;;;;19.47;47.01;99619.81;5071918;28;20499;-50
2023/01/16 08:53:03;;;;;;;29.98;23.85;;;;;;;19.38;45.04;99580.53;5073239;28;20044;-57
2023/01/16 08:55:32;;;;;;;33.15;27.42;;;;;;;19.35;44.54;99583.53;5072957;28;20048;-54
2023/01/16 08:57:59;;;;;;;32.28;26.05;;;;;;;19.34;44.70;99581.00;5073476;28;20044;-52
2023/01/16 09:00:28;;;;;;;31.02;24.70;;;;;;;19.33;44.64;99584.72;5073134;28;20051;-48
2023/01/16 09:02:58;;;;;;;30.08;24.20;;;;;;;19.31;44.45;99578.66;5072968;28;20060;-50
2023/01/16 09:05:26;;;;;;;29.45;23.55;;;;;;;19.31;44.28;99589.38;5072992;28;20052;-52
2023/01/16 09:07:54;;;;;;;29.25;23.60;;;;;;;19.28;44.77;99577.13;5072968;28;20045;-56
2023/01/16 09:10:21;;;;;;;29.60;24.33;;;;;;;19.27;44.46;99581.66;5072931;28;20394;-56
2023/01/16 09:15:35;;;;;;;30.38;22.70;;;;;;;19.26;45.05;99581.81;5072931;28;20049;-55
2023/01/16 09:18:02;;;;;;;30.90;22.10;;;;;;;19.29;45.53;99577.97;5073118;28;20052;-56
2023/01/16 09:20:29;;;;;;;30.60;22.17;;;;;;;19.32;46.18;99570.44;5072357;28;20044;-59
2023/01/16 09:22:59;;;;;;;31.35;21.55;;;;;;;19.35;45.90;99566.59;5072704;28;20048;-59
2023/01/16 09:25:27;;;;;;;25.95;20.67;;;;;;;19.39;46.29;99565.25;5072832;28;20059;-62
2023/01/16 09:27:55;;;;;;;24.20;20.25;;;;;;;19.41;46.15;99560.59;5072958;28;20055;-59
2023/01/16 09:30:23;;;;;;;29.55;20.73;;;;;;;19.42;45.75;99546.16;5072436;28;20045;-60
2023/01/16 09:32:50;;;;;;;21.80;17.17;;;;;;;19.42;46.45;99544.31;5072595;28;20048;-62
2023/01/16 09:35:17;;;;;;;24.48;19.08;;;;;;;19.45;46.54;99537.78;5072621;28;20056;-61
2023/01/16 09:37:45;;;;;;;24.92;17.90;;;;;;;19.46;46.69;99534.09;5072692;28;20501;-63
2023/01/16 09:40:21;;;;;;;22.98;17.75;;;;;;;19.46;46.97;99529.56;5072879;28;20055;-51
2023/01/16 09:45:50;;;;;;;21.40;15.25;;;;;;;19.51;47.00;99526.38;5065881;28;20462;-53
2023/01/16 09:48:38;;;;;;;20.30;15.07;;;;;;;19.52;47.41;99511.94;5069104;28;20036;-52
2023/01/16 09:51:12;;;;;;;19.50;15.65;;;;;;;19.55;47.43;99516.97;5068956;28;20056;-55
2023/01/16 09:59:51;;;;;;;18.48;14.48;;;;;;;19.57;47.36;99506.94;5075332;28;20040;-58
2023/01/16 10:02:32;;;;;;;17.53;13.57;;;;;;;19.58;47.17;99500.56;5059887;28;20045;-59
2023/01/16 10:05:05;;;;;;;16.60;13.50;;;;;;;19.57;47.04;99489.97;5056011;28;20118;-62
2023/01/16 10:08:04;;;;;;;21.10;13.40;;;;;;;19.56;47.18;99483.75;5055218;28;20041;-62
2023/01/16 10:11:09;;;;;;;17.65;13.50;;;;;;;19.56;47.10;99478.38;5054970;28;20049;-52
2023/01/16 10:13:55;;;;;;;21.38;14.40;;;;;;;19.56;46.83;99458.75;5055097;28;20060;-54
2023/01/16 10:17:00;;;;;;;17.38;13.82;;;;;;;19.55;47.27;99457.94;5070604;28;20051;-56
2023/01/16 10:19:30;;;;;;;24.25;15.55;;;;;;;19.51;47.04;99459.25;5072446;28;20040;-58
2023/01/16 10:22:40;;;;;;;20.10;13.43;;;;;;;19.51;47.52;99451.22;5074702;28;20402;-60
2023/01/16 10:25:08;;;;;;;16.60;13.38;;;;;;;19.51;47.31;99444.00;5048001;28;20411;-60
2023/01/16 10:28:04;;;;;;;16.90;13.48;;;;;;;19.51;47.30;99448.53;5073830;28;20059;-57
2023/01/16 10:30:52;;;;;;;18.05;14.68;;;;;;;19.49;46.95;99445.19;5074761;28;20374;-55
2023/01/16 10:33:40;;;;;;;17.55;13.52;;;;;;;19.48;47.27;99422.00;5075346;28;20049;-56
2023/01/16 10:36:22;;;;;;;15.90;12.65;;;;;;;19.49;47.14;99424.56;5067110;28;20075;-49
2023/01/16 10:38:55;;;;;;;20.85;13.63;;;;;;;19.48;47.10;99416.66;5059124;28;20044;-61
2023/01/16 10:50:21;;;;;;;13.95;11.65;;;;;;;19.49;47.48;99395.03;5074665;28;20055;-53
2023/01/16 10:53:04;;;;;;;16.42;12.13;;;;;;;19.50;47.62;99377.91;5074621;28;20052;-50
2023/01/16 10:55:35;;;;;;;14.25;11.65;;;;;;;19.51;47.46;99386.78;5053146;28;20045;-58
2023/01/16 10:58:10;;;;;;;18.95;14.30;;;;;;;19.52;47.42;99380.41;5055293;28;20052;-59
2023/01/16 11:00:42;;;;;;;14.40;11.68;;;;;;;19.50;47.67;99367.16;5054394;28;20041;-51
2023/01/16 11:03:31;;;;;;;16.30;12.57;;;;;;;19.51;47.65;99370.69;5053305;28;20045;-52
2023/01/16 11:06:09;;;;;;;16.95;12.95;;;;;;;19.51;47.28;99370.69;5058258;28;20053;-53
2023/01/16 11:08:37;;;;;;;13.70;12.05;;;;;;;19.52;47.41;99375.03;5074795;28;20048;-49
2023/01/16 11:11:04;;;;;;;16.70;12.82;;;;;;;19.53;47.61;99357.97;5073974;28;20052;-52
2023/01/16 11:19:17;;;;;;;15.02;12.50;;;;;;;19.54;47.99;99359.63;5075040;28;20048;-62
2023/01/16 11:21:53;;;;;;;15.77;12.80;;;;;;;19.54;47.33;99365.00;5074042;28;20041;-63
2023/01/16 11:24:24;;;;;;;20.63;13.73;;;;;;;19.54;47.44;99361.47;5072640;28;20060;-62
2023/01/16 11:26:54;;;;;;;15.77;13.25;;;;;;;19.54;47.60;99362.31;5074096;28;20048;-62
2023/01/16 11:29:25;;;;;;;17.88;13.40;;;;;;;19.55;47.56;99360.47;5074100;28;20048;-53
2023/01/16 11:32:05;;;;;;;15.73;13.60;;;;;;;19.54;47.45;99356.94;5073280;28;20048;-56
2023/01/16 11:34:33;;;;;;;15.48;12.98;;;;;;;19.55;47.47;99347.88;5073953;28;20048;-51
2023/01/16 11:37:04;;;;;;;18.30;14.57;;;;;;;19.53;47.56;99341.84;5073225;28;20045;-50
2023/01/16 11:39:35;;;;;;;14.57;12.80;;;;;;;19.53;47.65;99333.81;5052304;28;20049;-60
2023/01/16 11:47:44;;;;;;;17.10;14.63;;;;;;;19.56;47.32;99305.75;5093663;28;20063;-54
2023/01/16 11:50:32;;;;;;;15.27;13.13;;;;;;;19.56;47.49;99295.84;5094169;28;20044;-61
2023/01/16 11:52:59;;;;;;;18.65;14.32;;;;;;;19.56;47.69;99285.13;5052320;28;20057;-60
2023/01/16 11:55:42;;;;;;;15.15;11.88;;;;;;;19.56;47.87;99265.50;5052466;28;20044;-60
2023/01/16 11:58:39;;;;;;;20.65;15.50;;;;;;;19.57;46.99;99285.94;5072616;28;20053;-55
2023/01/16 12:01:12;;;;;;;16.77;14.77;;;;;;;19.55;47.46;99283.44;5063958;28;20060;-56
2023/01/16 12:04:03;;;;;;;16.85;15.02;;;;;;;19.55;47.50;99236.97;5073320;28;20051;-52
2023/01/16 12:06:36;;;;;;;20.42;15.13;;;;;;;19.55;47.43;99243.19;5073481;28;20394;-52
2023/01/16 12:09:14;;;;;;;17.80;14.30;;;;;;;19.56;47.46;99241.34;5073729;28;20044;-56
2023/01/16 12:14:17;;;;;;;16.52;12.55;;;;;;;19.56;47.83;99225.22;5072885;28;20037;-52
2023/01/16 12:15:22;;;;;;;16.05;13.48;;;;;;;19.56;48.00;99228.75;5071678;28;20055;-56
2023/01/16 12:18:14;;;;;;;14.23;11.77;;;;;;;19.56;48.47;99219.88;5073163;28;20055;-61
2023/01/16 12:21:01;;;;;;;15.30;11.85;;;;;;;19.57;48.52;99211.66;5073658;28;20040;-54
2023/01/16 12:23:52;;;;;;;16.45;14.50;;;;;;;19.58;47.87;99205.28;5073291;28;20418;-53
2023/01/16 12:27:06;;;;;;;18.10;13.63;;;;;;;19.55;48.34;99207.47;5073248;28;20041;-52
2023/01/16 12:29:58;;;;;;;14.82;12.05;;;;;;;19.54;48.60;99195.88;5053464;28;20525;-60
2023/01/16 12:32:55;;;;;;;15.82;12.40;;;;;;;19.52;49.10;99179.94;5072840;28;20048;-60
2023/01/16 12:35:25;;;;;;;19.30;12.68;;;;;;;19.52;49.31;99160.31;5073042;28;20044;-61
2023/01/16 12:38:22;;;;;;;17.67;13.02;;;;;;;19.53;49.52;99137.84;5073331;28;20048;-57
2023/01/16 12:44:32;;;;;;;18.50;12.00;;;;;;;19.52;50.52;99139.69;5072897;28;20082;-60
2023/01/16 12:47:21;;;;;;;15.27;12.20;;;;;;;19.52;50.45;99144.22;5072753;28;20395;-60
2023/01/16 12:49:48;;;;;;;16.00;11.48;;;;;;;19.51;50.29;99127.28;5072819;28;20052;-54
2023/01/16 12:52:34;;;;;;;12.57;11.23;;;;;;;19.51;50.31;99118.38;5072467;28;20045;-52